Time;durP1;ratioP1;P1;durP2;ratioP2;P2;SDS_P1;SDS_P2;PMS_P1;PMS_P2;Temp;Humidity;BMP_temperature;BMP_pressure;BME280_temperature;BME280_humidity;BME280_pressure;Samples;Min_cycle;Max_cycle;Signal;HPM_P1;HPM_P2
2024/04/17 00:01:03;;;;;;;1999.90;999.90;;;8.40;85.70;;;;;;6425361;22;20645;-77
2024/04/17 00:03:29;;;;;;;1999.90;999.90;;;8.50;85.60;;;;;;6381690;22;20223;-78
2024/04/17 00:05:57;;;;;;;1999.90;999.90;;;8.60;85.50;;;;;;6382136;22;20219;-78
2024/04/17 00:08:23;;;;;;;1999.90;999.90;;;8.60;85.40;;;;;;6381182;22;20231;-77
2024/04/17 00:10:50;;;;;;;1999.90;999.90;;;8.70;85.40;;;;;;6381621;22;20350;-78
2024/04/17 00:13:16;;;;;;;1999.90;999.90;;;8.70;85.30;;;;;;6299639;22;20239;-78
2024/04/17 00:15:42;;;;;;;1999.90;999.90;;;8.80;85.40;;;;;;6382384;22;20666;-78
2024/04/17 00:18:08;;;;;;;1999.90;999.90;;;8.80;85.30;;;;;;6381135;22;20777;-79
2024/04/17 00:20:34;;;;;;;1999.90;999.90;;;8.90;85.30;;;;;;6382466;22;20239;-78
2024/04/17 00:23:00;;;;;;;1999.90;999.90;;;8.90;85.20;;;;;;6342400;22;20326;-78
2024/04/17 00:25:25;;;;;;;1999.90;999.90;;;8.90;85.20;;;;;;6382830;22;20248;-78
2024/04/17 00:27:51;;;;;;;1999.90;999.90;;;8.90;85.10;;;;;;6382601;22;20231;-78
2024/04/17 00:30:16;;;;;;;1999.90;999.90;;;8.90;85.20;;;;;;6383593;22;20702;-79
2024/04/17 00:32:42;;;;;;;1999.90;999.90;;;9.00;85.30;;;;;;6383747;22;20231;-79
2024/04/17 00:35:08;;;;;;;1999.90;999.90;;;9.00;85.30;;;;;;6427901;22;20289;-79
2024/04/17 00:37:33;;;;;;;1999.90;999.90;;;9.00;85.30;;;;;;6426892;22;20212;-79
2024/04/17 00:39:59;;;;;;;1999.90;999.90;;;9.10;85.40;;;;;;6383594;22;20271;-78
2024/04/17 00:42:25;;;;;;;1999.90;999.90;;;9.10;85.40;;;;;;6384408;22;20220;-78
2024/04/17 00:44:51;;;;;;;1999.90;999.90;;;9.10;85.40;;;;;;6428065;22;20352;-79
2024/04/17 00:47:16;;;;;;;1999.90;999.90;;;9.20;85.50;;;;;;6383509;22;20238;-78
2024/04/17 00:49:42;;;;;;;1999.90;999.90;;;9.20;85.40;;;;;;6384410;22;20251;-79
2024/04/17 00:52:08;;;;;;;1999.90;999.90;;;9.20;85.40;;;;;;6428502;22;20250;-78
2024/04/17 00:54:35;;;;;;;1999.90;999.90;;;9.20;85.50;;;;;;6385016;22;20219;-78
2024/04/17 00:57:01;;;;;;;1999.90;999.90;;;9.20;85.50;;;;;;6384016;22;20287;-78
2024/04/17 00:59:28;;;;;;;1999.90;999.90;;;9.20;85.50;;;;;;6426687;22;20231;-79
2024/04/17 01:01:53;;;;;;;1999.90;999.90;;;9.20;85.50;;;;;;6384062;22;20224;-79
2024/04/17 01:04:19;;;;;;;1999.90;999.90;;;9.10;85.50;;;;;;6427946;22;20219;-79
2024/04/17 01:06:46;;;;;;;1999.90;999.90;;;8.90;85.70;;;;;;6426384;22;20258;-78
2024/04/17 01:09:11;;;;;;;1999.90;999.90;;;8.80;86.00;;;;;;6382974;22;21040;-78
2024/04/17 01:11:39;;;;;;;1999.90;999.90;;;8.60;86.30;;;;;;6426155;22;20258;-78
2024/04/17 01:14:04;;;;;;;1999.90;999.90;;;8.40;86.70;;;;;;6382174;22;20263;-78
2024/04/17 01:16:30;;;;;;;1999.90;999.90;;;8.40;87.00;;;;;;6424855;22;20212;-78
2024/04/17 01:18:57;;;;;;;1415.63;402.13;;;8.30;87.10;;;;;;6382135;22;20243;-78
2024/04/17 01:21:23;;;;;;;1999.90;999.90;;;8.20;87.30;;;;;;6381650;22;20220;-78
2024/04/17 01:23:53;;;;;;;1999.90;999.90;;;8.10;87.40;;;;;;6425308;22;20254;-78
2024/04/17 01:26:19;;;;;;;1999.90;999.90;;;8.10;87.70;;;;;;6381003;22;20227;-78
2024/04/17 01:28:45;;;;;;;734.07;122.20;;;8.00;87.90;;;;;;6424893;22;20231;-78
2024/04/17 01:31:11;;;;;;;1999.90;999.90;;;8.00;88.10;;;;;;6425745;22;20261;-78
2024/04/17 01:33:37;;;;;;;1537.17;696.17;;;8.00;88.20;;;;;;6381532;22;20223;-78
2024/04/17 01:36:07;;;;;;;1455.67;680.57;;;8.00;88.30;;;;;;6379986;22;20253;-78
2024/04/17 01:38:32;;;;;;;1999.90;999.90;;;8.00;88.30;;;;;;6428449;22;20262;-78
2024/04/17 01:40:58;;;;;;;1606.37;699.03;;;8.00;88.30;;;;;;6384940;22;20642;-78
2024/04/17 01:43:25;;;;;;;1999.90;999.90;;;8.00;88.50;;;;;;6384856;22;20579;-78
2024/04/17 01:45:51;;;;;;;1999.90;999.90;;;7.90;88.80;;;;;;6384741;22;20270;-78
2024/04/17 01:48:17;;;;;;;1999.90;999.90;;;8.00;89.00;;;;;;6427753;22;20685;-79
2024/04/17 01:50:43;;;;;;;1216.53;405.23;;;8.00;89.40;;;;;;6384806;22;20342;-78
2024/04/17 01:53:09;;;;;;;1999.90;526.40;;;8.00;89.60;;;;;;6384839;22;20226;-78
2024/04/17 01:55:34;;;;;;;1469.07;403.03;;;8.00;89.90;;;;;;6428561;22;20266;-78
2024/04/17 01:58:00;;;;;;;1604.40;466.13;;;8.00;90.00;;;;;;6427591;22;20219;-78
2024/04/17 02:00:25;;;;;;;1957.23;736.03;;;8.00;90.10;;;;;;6384446;22;20630;-78
2024/04/17 02:02:51;;;;;;;949.10;136.00;;;8.00;90.10;;;;;;6384940;22;20686;-79
2024/04/17 02:05:17;;;;;;;1665.27;190.20;;;8.00;90.10;;;;;;6428783;22;20262;-78
2024/04/17 02:07:43;;;;;;;1858.17;734.57;;;8.00;90.20;;;;;;6427559;22;20329;-78
2024/04/17 02:10:08;;;;;;;1999.90;999.90;;;8.00;90.20;;;;;;6384555;22;20242;-78
2024/04/17 02:12:34;;;;;;;1999.90;999.90;;;8.00;90.30;;;;;;6384537;22;20541;-78
2024/04/17 02:15:01;;;;;;;1804.33;242.87;;;8.00;90.30;;;;;;6384296;22;20275;-78
2024/04/17 02:17:27;;;;;;;1999.90;999.90;;;7.90;90.40;;;;;;6383318;22;20340;-78
2024/04/17 02:19:53;;;;;;;1978.37;436.40;;;7.90;90.40;;;;;;6384233;22;20753;-78
2024/04/17 02:22:19;;;;;;;1999.90;999.90;;;7.90;90.30;;;;;;6384033;22;20223;-77
2024/04/17 02:24:44;;;;;;;1999.90;999.90;;;7.90;90.30;;;;;;6384150;22;20219;-78
2024/04/17 02:27:10;;;;;;;1170.20;420.37;;;7.90;90.30;;;;;;6383177;22;20223;-78
2024/04/17 02:29:36;;;;;;;1999.90;999.90;;;7.80;90.30;;;;;;6384110;22;20534;-78
2024/04/17 02:32:02;;;;;;;1517.23;693.73;;;7.90;90.30;;;;;;6384606;22;20228;-78
2024/04/17 02:34:28;;;;;;;1533.07;440.70;;;7.90;90.30;;;;;;6428319;22;20224;-77
2024/04/17 02:36:53;;;;;;;1999.90;999.90;;;7.90;90.30;;;;;;6427150;22;20822;-78
2024/04/17 02:39:20;;;;;;;1675.03;706.97;;;7.90;90.30;;;;;;6428123;22;20614;-78
2024/04/17 02:41:45;;;;;;;1999.90;999.90;;;7.90;90.30;;;;;;6384410;22;20658;-78
2024/04/17 02:44:11;;;;;;;1999.90;999.90;;;7.90;90.40;;;;;;6428368;22;20215;-78
2024/04/17 02:46:37;;;;;;;1882.73;323.00;;;7.90;90.50;;;;;;6383639;22;20332;-78
2024/04/17 02:49:02;;;;;;;1999.90;495.53;;;7.90;90.50;;;;;;6426940;22;20253;-79
2024/04/17 02:51:28;;;;;;;1999.90;999.90;;;7.90;90.50;;;;;;6427527;22;20223;-78
2024/04/17 02:53:54;;;;;;;1590.13;710.23;;;8.00;90.60;;;;;;6427970;22;20219;-78
2024/04/17 02:56:19;;;;;;;1999.90;999.90;;;7.90;90.60;;;;;;6383441;22;20263;-78
2024/04/17 02:58:45;;;;;;;1999.90;999.90;;;8.00;90.60;;;;;;6384037;22;20254;-79
2024/04/17 03:01:15;;;;;;;1999.90;999.90;;;8.10;90.60;;;;;;6428334;22;20228;-78
2024/04/17 03:03:41;;;;;;;1999.90;999.90;;;8.10;90.60;;;;;;6428850;22;20219;-79
2024/04/17 03:06:08;;;;;;;1999.90;999.90;;;8.20;90.60;;;;;;6383769;22;20265;-78
2024/04/17 03:08:34;;;;;;;1999.90;999.90;;;8.30;90.50;;;;;;6429277;22;20295;-78
2024/04/17 03:11:00;;;;;;;1999.90;999.90;;;8.40;90.30;;;;;;6384982;22;20242;-78
2024/04/17 03:13:26;;;;;;;1999.90;999.90;;;8.40;90.30;;;;;;6428948;22;20295;-78
2024/04/17 03:15:52;;;;;;;1999.90;999.90;;;8.40;90.60;;;;;;6428988;22;20234;-78
2024/04/17 03:18:18;;;;;;;1999.90;999.90;;;8.30;90.30;;;;;;6384046;22;20227;-79
2024/04/17 03:20:44;;;;;;;1999.90;999.90;;;8.30;90.30;;;;;;6384948;22;20239;-78
2024/04/17 03:23:10;;;;;;;1999.90;999.90;;;8.30;90.40;;;;;;6429118;22;20333;-78
2024/04/17 03:25:36;;;;;;;1999.90;999.90;;;8.30;90.40;;;;;;6384896;22;20706;-78
2024/04/17 03:28:01;;;;;;;1999.90;999.90;;;8.30;90.40;;;;;;6383731;22;20227;-78
2024/04/17 03:30:27;;;;;;;1999.90;999.90;;;8.30;90.40;;;;;;6385564;22;20240;-79
2024/04/17 03:32:52;;;;;;;1999.90;999.90;;;8.30;90.40;;;;;;6428708;22;20328;-78
2024/04/17 03:35:18;;;;;;;1999.90;999.90;;;8.30;90.40;;;;;;6429148;22;20536;-78
2024/04/17 03:37:44;;;;;;;1999.90;999.90;;;8.40;90.40;;;;;;6427409;22;21137;-78
2024/04/17 03:40:10;;;;;;;1999.90;999.90;;;8.50;90.30;;;;;;6385144;22;20243;-78
2024/04/17 03:42:36;;;;;;;1999.90;999.90;;;8.50;90.20;;;;;;6428764;22;20231;-78
2024/04/17 03:45:02;;;;;;;1999.90;999.90;;;8.60;90.10;;;;;;6428741;22;20216;-78
2024/04/17 03:47:28;;;;;;;1999.90;999.90;;;8.70;90.10;;;;;;6383171;22;20244;-78
2024/04/17 03:49:54;;;;;;;1999.90;999.90;;;8.70;90.00;;;;;;6428440;22;20337;-78
2024/04/17 03:52:20;;;;;;;1999.90;999.90;;;8.70;90.00;;;;;;6384376;22;20250;-78
2024/04/17 03:54:45;;;;;;;1999.90;999.90;;;8.70;90.00;;;;;;6384708;22;20247;-78
2024/04/17 03:57:11;;;;;;;1999.90;999.90;;;8.70;90.00;;;;;;6426685;22;20215;-78
2024/04/17 03:59:37;;;;;;;1999.90;999.90;;;8.70;90.00;;;;;;6383999;22;20536;-77
2024/04/17 04:02:06;;;;;;;1999.90;999.90;;;8.80;90.00;;;;;;6383801;22;20659;-78
2024/04/17 04:04:32;;;;;;;1999.90;999.90;;;8.80;90.00;;;;;;6427439;22;20266;-78
2024/04/17 04:06:57;;;;;;;1999.90;999.90;;;8.80;89.90;;;;;;6425760;22;20328;-78
2024/04/17 04:09:23;;;;;;;1999.90;999.90;;;8.80;89.80;;;;;;6427044;22;20235;-78
2024/04/17 04:11:53;;;;;;;1999.90;999.90;;;8.80;89.70;;;;;;6383335;22;20236;-78
2024/04/17 04:14:18;;;;;;;1999.90;999.90;;;8.80;89.70;;;;;;6426952;22;20219;-78
2024/04/17 04:16:45;;;;;;;1999.90;999.90;;;8.80;89.70;;;;;;6425170;22;21072;-78
2024/04/17 04:19:11;;;;;;;1999.90;999.90;;;8.80;89.70;;;;;;6382778;22;20243;-78
2024/04/17 04:21:36;;;;;;;1999.90;999.90;;;8.80;89.60;;;;;;6426439;22;20219;-78
2024/04/17 04:24:02;;;;;;;1999.90;999.90;;;8.80;89.50;;;;;;6426456;22;20264;-78
2024/04/17 04:26:28;;;;;;;1999.90;999.90;;;8.90;89.50;;;;;;6425200;22;20216;-78
2024/04/17 04:28:53;;;;;;;1999.90;999.90;;;8.90;89.40;;;;;;6426502;22;20228;-78
2024/04/17 04:31:19;;;;;;;1999.90;999.90;;;8.90;89.30;;;;;;6425650;22;20777;-77
2024/04/17 04:33:44;;;;;;;1999.90;999.90;;;8.90;89.30;;;;;;6425731;22;20275;-78
2024/04/17 04:36:10;;;;;;;1999.90;999.90;;;8.90;89.20;;;;;;6380598;22;20651;-78
2024/04/17 04:38:36;;;;;;;1999.90;999.90;;;8.90;89.10;;;;;;6425818;22;20581;-80
2024/04/17 04:41:04;;;;;;;1999.90;999.90;;;8.90;89.00;;;;;;6425525;22;20215;-78
2024/04/17 04:43:30;;;;;;;1999.90;999.90;;;8.80;88.80;;;;;;6425615;22;20220;-78
2024/04/17 04:45:56;;;;;;;1999.90;999.90;;;8.80;88.70;;;;;;6424987;22;20318;-78
2024/04/17 04:48:21;;;;;;;1999.90;999.90;;;8.80;88.70;;;;;;6424439;22;20220;-78
2024/04/17 04:50:47;;;;;;;1999.90;999.90;;;8.70;88.60;;;;;;6425120;22;20274;-78
2024/04/17 04:53:13;;;;;;;1999.90;999.90;;;8.60;88.70;;;;;;6425780;22;20299;-78
2024/04/17 04:55:38;;;;;;;1999.90;999.90;;;8.60;88.80;;;;;;6425465;22;20227;-78
2024/04/17 04:58:04;;;;;;;1999.90;999.90;;;8.60;88.80;;;;;;6424044;22;20455;-78
2024/04/17 05:00:30;;;;;;;1999.90;999.90;;;8.50;88.80;;;;;;6425215;22;20320;-78
2024/04/17 05:02:55;;;;;;;1999.90;999.90;;;8.50;88.70;;;;;;6381398;22;20227;-78
2024/04/17 05:05:21;;;;;;;1999.90;999.90;;;8.50;88.80;;;;;;6425237;22;20220;-78
2024/04/17 05:07:47;;;;;;;1999.90;999.90;;;8.50;88.80;;;;;;6424278;22;20219;-78
2024/04/17 05:10:13;;;;;;;1999.90;999.90;;;8.50;88.70;;;;;;6425777;22;20231;-79
2024/04/17 05:12:38;;;;;;;1999.90;999.90;;;8.50;88.60;;;;;;6424960;22;20666;-79
2024/04/17 05:15:04;;;;;;;1999.90;999.90;;;8.50;88.70;;;;;;6425274;22;20269;-77
2024/04/17 05:17:30;;;;;;;1999.90;999.90;;;8.50;88.70;;;;;;6424054;22;20538;-78
2024/04/17 05:19:56;;;;;;;1999.90;999.90;;;8.60;88.70;;;;;;6425516;22;20228;-78
2024/04/17 05:22:22;;;;;;;1999.90;999.90;;;8.60;88.60;;;;;;6425853;22;20576;-78
2024/04/17 05:24:47;;;;;;;1999.90;999.90;;;8.70;88.60;;;;;;6425075;22;20270;-78
2024/04/17 05:27:13;;;;;;;1999.90;999.90;;;8.70;88.50;;;;;;6424918;22;20338;-78
2024/04/17 05:29:38;;;;;;;1999.90;999.90;;;8.80;88.50;;;;;;6425438;22;20240;-78
2024/04/17 05:32:04;;;;;;;1999.90;999.90;;;8.90;88.40;;;;;;6425910;22;20223;-79
2024/04/17 05:34:30;;;;;;;1999.90;999.90;;;8.80;88.30;;;;;;6426008;22;20224;-78
2024/04/17 05:36:56;;;;;;;1999.90;999.90;;;8.90;88.30;;;;;;6425559;22;20255;-79
2024/04/17 05:39:22;;;;;;;1999.90;999.90;;;8.90;88.20;;;;;;6383212;22;20243;-78
2024/04/17 05:41:47;;;;;;;1999.90;999.90;;;8.90;88.20;;;;;;6426687;22;20228;-78
2024/04/17 05:44:13;;;;;;;1999.90;999.90;;;8.90;88.20;;;;;;6383267;22;20257;-78
2024/04/17 05:46:38;;;;;;;1999.90;999.90;;;8.90;88.10;;;;;;6381811;22;20239;-79
2024/04/17 05:49:05;;;;;;;1999.90;999.90;;;8.90;88.20;;;;;;6426718;22;20227;-79
2024/04/17 05:51:31;;;;;;;1999.90;999.90;;;8.90;88.20;;;;;;6427281;22;20236;-78
2024/04/17 05:53:57;;;;;;;1999.90;999.90;;;9.00;88.10;;;;;;6427176;22;20307;-78
2024/04/17 05:56:22;;;;;;;1999.90;999.90;;;9.00;87.90;;;;;;6426138;22;20262;-78
2024/04/17 05:58:48;;;;;;;1999.90;999.90;;;9.00;87.80;;;;;;6429366;22;20215;-79
2024/04/17 06:01:13;;;;;;;1999.90;999.90;;;8.90;87.80;;;;;;6429864;22;20581;-79
2024/04/17 06:03:39;;;;;;;1999.90;999.90;;;8.90;87.80;;;;;;6385747;22;20262;-79
2024/04/17 06:06:05;;;;;;;1999.90;999.90;;;8.90;87.90;;;;;;6429037;22;20220;-79
2024/04/17 06:08:31;;;;;;;1999.90;999.90;;;9.00;87.90;;;;;;6430295;22;20338;-78
2024/04/17 06:10:57;;;;;;;1999.90;999.90;;;9.10;87.80;;;;;;6430003;22;20232;-79
2024/04/17 06:13:22;;;;;;;1999.90;999.90;;;9.10;87.80;;;;;;6386689;22;20751;-79
2024/04/17 06:15:49;;;;;;;1999.90;999.90;;;9.20;87.80;;;;;;6386704;22;20258;-81
2024/04/17 06:18:14;;;;;;;1999.90;999.90;;;9.20;87.70;;;;;;6429790;22;20227;-78
2024/04/17 06:20:43;;;;;;;1999.90;999.90;;;9.30;87.70;;;;;;6430106;22;20353;-79
2024/04/17 06:23:09;;;;;;;1999.90;999.90;;;9.40;87.70;;;;;;6386478;22;20250;-79
2024/04/17 06:25:34;;;;;;;1999.90;999.90;;;9.40;87.60;;;;;;6431896;22;20262;-79
2024/04/17 06:28:00;;;;;;;1999.90;999.90;;;9.40;87.50;;;;;;6430844;22;20342;-79
2024/04/17 06:30:26;;;;;;;1999.90;999.90;;;9.40;87.50;;;;;;6433061;22;20339;-79
2024/04/17 06:32:51;;;;;;;1999.90;999.90;;;9.40;87.50;;;;;;6433404;22;20314;-79
2024/04/17 06:35:17;;;;;;;1999.90;999.90;;;9.50;87.60;;;;;;6433202;22;20228;-80
2024/04/17 06:37:42;;;;;;;1999.90;999.90;;;9.60;87.50;;;;;;6388129;22;20240;-80
2024/04/17 06:40:09;;;;;;;1999.90;999.90;;;9.70;87.30;;;;;;6389460;22;20669;-79
2024/04/17 06:42:34;;;;;;;1999.90;999.90;;;9.80;87.80;;;;;;6433435;22;20224;-79
2024/04/17 06:45:01;;;;;;;1999.90;999.90;;;9.80;87.00;;;;;;6433048;22;20743;-79
2024/04/17 06:47:27;;;;;;;1999.90;999.90;;;9.90;86.90;;;;;;6388602;22;20232;-79
2024/04/17 06:49:53;;;;;;;1999.90;999.90;;;9.90;86.70;;;;;;6433274;22;20272;-79
2024/04/17 06:52:19;;;;;;;1999.90;999.90;;;10.00;86.70;;;;;;6389340;22;20291;-79
2024/04/17 06:54:44;;;;;;;1999.90;999.90;;;10.00;86.50;;;;;;6433548;22;20216;-79
2024/04/17 06:57:10;;;;;;;1999.90;999.90;;;10.00;86.50;;;;;;6432755;22;20225;-79
2024/04/17 06:59:35;;;;;;;1999.90;999.90;;;10.10;86.40;;;;;;6389408;22;20267;-79
2024/04/17 07:02:01;;;;;;;1999.90;999.90;;;10.20;86.40;;;;;;6388480;22;20255;-78
2024/04/17 07:04:27;;;;;;;1999.90;999.90;;;10.30;86.20;;;;;;6432654;22;20220;-79
2024/04/17 07:06:52;;;;;;;1999.90;999.90;;;10.40;86.10;;;;;;6432030;22;20229;-79
2024/04/17 07:09:18;;;;;;;1999.90;999.90;;;10.60;85.90;;;;;;6433348;22;20233;-79
2024/04/17 07:11:44;;;;;;;1999.90;999.90;;;10.70;85.60;;;;;;6434678;22;20324;-79
2024/04/17 07:14:09;;;;;;;1999.90;999.90;;;10.70;85.50;;;;;;6438564;22;20224;-78
2024/04/17 07:16:35;;;;;;;1999.90;999.90;;;10.80;85.30;;;;;;6430554;22;20224;-79
2024/04/17 07:19:00;;;;;;;1999.90;999.90;;;10.80;85.20;;;;;;6432998;22;20225;-79
2024/04/17 07:21:26;;;;;;;1999.90;999.90;;;11.00;85.20;;;;;;6388903;22;20247;-78
2024/04/17 07:23:52;;;;;;;1999.90;999.90;;;11.10;85.60;;;;;;6389178;22;20232;-78
2024/04/17 07:26:18;;;;;;;1999.90;999.90;;;11.20;84.50;;;;;;6387957;22;20229;-79
2024/04/17 07:28:44;;;;;;;1999.90;999.90;;;11.20;84.40;;;;;;6388247;22;20672;-80
2024/04/17 07:31:09;;;;;;;1999.90;999.90;;;11.30;84.00;;;;;;6388302;22;20229;-79
2024/04/17 07:33:35;;;;;;;1999.90;999.90;;;11.20;83.90;;;;;;6432266;22;20233;-80
2024/04/17 07:36:03;;;;;;;1999.90;999.90;;;11.10;83.90;;;;;;6431139;22;20272;-80
2024/04/17 07:38:28;;;;;;;1999.90;999.90;;;11.10;84.00;;;;;;6432689;22;20221;-79
2024/04/17 07:41:00;;;;;;;1999.90;999.90;;;11.00;83.90;;;;;;6432100;22;20340;-79
2024/04/17 07:43:31;;;;;;;1999.90;999.90;;;11.00;83.90;;;;;;6431696;22;20228;-80
2024/04/17 07:46:00;;;;;;;1999.90;999.90;;;11.00;83.70;;;;;;6432374;22;20276;-78
2024/04/17 07:48:27;;;;;;;1999.90;999.90;;;10.90;83.70;;;;;;6390215;22;20293;-79
2024/04/17 07:50:52;;;;;;;1999.90;999.90;;;11.00;83.70;;;;;;6386827;22;20247;-79
2024/04/17 07:53:18;;;;;;;1999.90;999.90;;;11.00;83.60;;;;;;6431929;22;20778;-79
2024/04/17 07:55:44;;;;;;;1999.90;999.90;;;11.10;83.60;;;;;;6388512;22;20324;-80
2024/04/17 07:58:09;;;;;;;1999.90;999.90;;;11.20;83.60;;;;;;6387476;22;20256;-79
2024/04/17 08:00:35;;;;;;;1999.90;999.90;;;11.30;83.30;;;;;;6432240;22;20238;-80
2024/04/17 08:03:02;;;;;;;1999.90;999.90;;;11.40;83.10;;;;;;6388486;22;20325;-80
2024/04/17 08:05:28;;;;;;;1999.90;999.90;;;11.40;83.10;;;;;;6431796;22;20332;-80
2024/04/17 08:07:54;;;;;;;1999.90;999.90;;;11.50;83.00;;;;;;6430976;22;20230;-80
2024/04/17 08:10:19;;;;;;;1999.90;999.90;;;11.60;83.00;;;;;;6431671;22;20234;-80
2024/04/17 08:12:47;;;;;;;1999.90;999.90;;;11.70;82.80;;;;;;6432322;22;20254;-80
2024/04/17 08:15:13;;;;;;;1999.90;999.90;;;11.80;82.70;;;;;;6387596;22;20240;-78
2024/04/17 08:17:42;;;;;;;1999.90;999.90;;;11.90;82.40;;;;;;6386667;22;20678;-80
2024/04/17 08:20:08;;;;;;;1999.90;999.90;;;12.10;82.30;;;;;;6387587;22;20247;-79
2024/04/17 08:22:34;;;;;;;1999.90;999.90;;;12.30;81.80;;;;;;6431853;22;20717;-80
2024/04/17 08:24:59;;;;;;;1999.90;999.90;;;12.30;80.90;;;;;;6431978;22;20217;-80
2024/04/17 08:27:25;;;;;;;1999.90;999.90;;;12.40;80.30;;;;;;6431309;22;20219;-78
2024/04/17 08:29:51;;;;;;;1999.90;999.90;;;12.40;80.00;;;;;;6387484;22;20255;-80
2024/04/17 08:32:16;;;;;;;1999.90;999.90;;;12.50;79.70;;;;;;6432820;22;20273;-81
2024/04/17 08:34:42;;;;;;;1999.90;999.90;;;12.50;78.80;;;;;;6434026;22;20573;-79
2024/04/17 08:37:07;;;;;;;1999.90;999.90;;;12.50;78.30;;;;;;6431671;22;20261;-81
2024/04/17 08:39:33;;;;;;;1999.90;999.90;;;12.70;78.50;;;;;;6388747;22;20239;-80
2024/04/17 08:42:05;;;;;;;1999.90;999.90;;;12.90;77.60;;;;;;6389373;22;20700;-79
2024/04/17 08:44:34;;;;;;;1999.90;999.90;;;12.80;77.00;;;;;;6388795;22;20230;-79
2024/04/17 08:47:02;;;;;;;1999.90;999.90;;;12.80;76.90;;;;;;6432368;22;20216;-80
2024/04/17 08:49:31;;;;;;;1999.90;999.90;;;13.00;76.50;;;;;;6433822;22;20235;-80
2024/04/17 08:51:58;;;;;;;1999.90;999.90;;;13.10;76.20;;;;;;6390560;22;20257;-80
2024/04/17 08:54:25;;;;;;;1999.90;999.90;;;13.30;76.10;;;;;;6391716;22;20256;-80
2024/04/17 08:56:50;;;;;;;1999.90;999.90;;;13.40;76.00;;;;;;6429693;22;20310;-80
2024/04/17 08:59:16;;;;;;;1999.90;999.90;;;13.50;75.80;;;;;;6429939;22;20239;-80
2024/04/17 09:01:42;;;;;;;1999.90;999.90;;;13.40;75.10;;;;;;6429986;22;20266;-80
2024/04/17 09:04:10;;;;;;;1999.90;999.90;;;13.30;75.20;;;;;;6430139;22;20254;-79
2024/04/17 09:06:38;;;;;;;1999.90;999.90;;;13.30;75.30;;;;;;6383574;22;20278;-79
2024/04/17 09:09:07;;;;;;;1999.90;999.90;;;13.30;75.40;;;;;;6383847;22;20286;-80
2024/04/17 09:11:33;;;;;;;1999.90;999.90;;;13.40;75.40;;;;;;6428878;22;20231;-80
2024/04/17 09:13:59;;;;;;;1999.90;999.90;;;13.60;75.30;;;;;;6426467;22;20816;-79
2024/04/17 09:16:25;;;;;;;1999.90;999.90;;;13.80;74.70;;;;;;6381558;22;20231;-79
2024/04/17 09:18:50;;;;;;;1999.90;999.90;;;13.70;73.90;;;;;;6427175;22;20223;-79
2024/04/17 09:21:16;;;;;;;1999.90;999.90;;;13.90;73.50;;;;;;6427915;22;20265;-79
2024/04/17 09:23:42;;;;;;;1999.90;999.90;;;13.90;72.70;;;;;;6428390;22;20338;-79
2024/04/17 09:26:26;;;;;;;1999.90;999.90;;;13.90;72.90;;;;;;6383386;22;20243;-80
2024/04/17 09:28:53;;;;;;;1999.90;999.90;;;13.90;72.80;;;;;;6385361;22;20251;-80
2024/04/17 09:31:19;;;;;;;1999.90;999.90;;;14.00;72.80;;;;;;6427003;22;20266;-80
2024/04/17 09:33:45;;;;;;;1999.90;999.90;;;14.20;71.50;;;;;;6385428;22;20239;-80
2024/04/17 09:36:12;;;;;;;1999.90;999.90;;;14.20;71.00;;;;;;6427981;22;20228;-80
2024/04/17 09:38:38;;;;;;;1999.90;999.90;;;14.30;70.40;;;;;;6428914;22;20279;-80
2024/04/17 09:41:05;;;;;;;1999.90;999.90;;;14.40;70.00;;;;;;6428645;22;20222;-81
2024/04/17 09:43:30;;;;;;;1999.90;999.90;;;14.60;70.10;;;;;;6385667;22;20235;-79
2024/04/17 09:46:08;;;;;;;1999.90;999.90;;;14.70;69.80;;;;;;6385237;22;20548;-80
2024/04/17 09:48:40;;;;;;;1999.90;999.90;;;14.90;70.10;;;;;;6429147;22;20223;-79
2024/04/17 09:51:08;;;;;;;1999.90;999.90;;;15.10;69.90;;;;;;6385501;22;20231;-80
2024/04/17 09:53:36;;;;;;;1999.90;999.90;;;15.40;69.50;;;;;;6385213;22;20577;-80
2024/04/17 09:56:03;;;;;;;1999.90;999.90;;;15.70;69.40;;;;;;6384123;22;20227;-79
2024/04/17 09:58:33;;;;;;;1999.90;999.90;;;16.30;68.10;;;;;;6429487;22;20566;-80
2024/04/17 10:01:03;;;;;;;1999.90;999.90;;;17.00;65.90;;;;;;6430814;22;20247;-80
2024/04/17 10:03:31;;;;;;;1999.90;999.90;;;17.30;64.90;;;;;;6431554;22;20275;-82
2024/04/17 10:05:59;;;;;;;1999.90;999.90;;;17.40;63.00;;;;;;6432052;22;20303;-79
2024/04/17 10:08:33;;;;;;;1999.90;999.90;;;17.20;62.20;;;;;;6430501;22;20227;-79
2024/04/17 10:10:59;;;;;;;1999.90;999.90;;;17.10;62.60;;;;;;6386835;22;20274;-83
2024/04/17 10:13:26;;;;;;;1999.90;999.90;;;16.90;62.40;;;;;;6431831;22;20216;-80
2024/04/17 10:15:52;;;;;;;1999.90;999.90;;;16.90;61.80;;;;;;6431630;22;20258;-79
2024/04/17 10:18:19;;;;;;;1999.90;999.90;;;16.90;61.40;;;;;;6394665;22;20786;-80
2024/04/17 10:20:45;;;;;;;1999.90;999.90;;;17.10;60.80;;;;;;6430171;22;20232;-78
2024/04/17 10:23:14;;;;;;;1999.90;999.90;;;17.10;59.90;;;;;;6432971;22;20227;-79
2024/04/17 10:25:54;;;;;;;1999.90;999.90;;;17.00;60.00;;;;;;6389330;22;20591;-80
2024/04/17 10:28:21;;;;;;;1999.90;999.90;;;17.00;59.40;;;;;;6434963;22;20270;-79
2024/04/17 10:30:53;;;;;;;1999.90;999.90;;;17.20;59.00;;;;;;6430284;22;20236;-79
2024/04/17 10:33:19;;;;;;;1999.90;999.90;;;17.20;59.00;;;;;;6426313;22;20258;-79
2024/04/17 10:35:49;;;;;;;1999.90;999.90;;;17.30;59.20;;;;;;6429820;22;20311;-80
2024/04/17 10:38:15;;;;;;;1999.90;999.90;;;17.30;58.90;;;;;;6428123;22;20975;-79
2024/04/17 10:40:41;;;;;;;1999.90;999.90;;;17.20;57.60;;;;;;6429594;22;20239;-79
2024/04/17 10:43:07;;;;;;;1999.90;999.90;;;16.60;56.70;;;;;;6428947;22;20261;-79
2024/04/17 10:45:32;;;;;;;1999.90;999.90;;;16.10;56.90;;;;;;6429529;22;20225;-80
2024/04/17 10:48:01;;;;;;;1999.90;999.90;;;15.50;57.60;;;;;;6427871;22;20215;-79
2024/04/17 10:50:27;;;;;;;1999.90;999.90;;;15.00;58.20;;;;;;6428418;22;20236;-78
2024/04/17 10:52:53;;;;;;;1999.90;999.90;;;14.70;59.20;;;;;;6428120;22;20266;-78
2024/04/17 10:55:20;;;;;;;1999.90;999.90;;;14.40;59.80;;;;;;6384320;22;20534;-78
2024/04/17 10:57:45;;;;;;;1999.90;999.90;;;14.10;60.70;;;;;;6381873;22;20303;-79
2024/04/17 11:00:12;;;;;;;1999.90;999.90;;;13.50;62.60;;;;;;6382742;22;20247;-79
2024/04/17 11:02:37;;;;;;;1999.90;999.90;;;12.80;64.80;;;;;;6382315;22;20709;-78
2024/04/17 11:05:03;;;;;;;1999.90;999.90;;;12.30;67.10;;;;;;6426020;22;20223;-78
2024/04/17 11:07:31;;;;;;;1999.90;999.90;;;11.80;68.50;;;;;;6424109;22;20223;-78
2024/04/17 11:09:56;;;;;;;1999.90;999.90;;;11.50;70.00;;;;;;6381587;22;20356;-78
2024/04/17 11:12:22;;;;;;;1999.90;999.90;;;11.30;71.30;;;;;;6424919;22;20219;-78
2024/04/17 11:14:59;;;;;;;1999.90;999.90;;;11.00;72.50;;;;;;6425581;22;20553;-78
2024/04/17 11:17:24;;;;;;;1999.90;999.90;;;10.70;73.10;;;;;;6424485;22;20230;-79
2024/04/17 11:19:51;;;;;;;1999.90;999.90;;;10.50;73.50;;;;;;6425858;22;20785;-79
2024/04/17 11:22:17;;;;;;;1999.90;999.90;;;10.20;74.00;;;;;;6425875;22;20290;-78
2024/04/17 11:24:51;;;;;;;1999.90;999.90;;;10.00;74.60;;;;;;6426330;22;20226;-78
2024/04/17 11:27:17;;;;;;;1999.90;999.90;;;9.80;75.40;;;;;;6385989;22;20230;-78
2024/04/17 11:29:46;;;;;;;1999.90;999.90;;;9.70;75.70;;;;;;6426527;22;20744;-78
2024/04/17 11:32:13;;;;;;;1999.90;999.90;;;9.60;76.20;;;;;;6381969;22;20992;-80
2024/04/17 11:34:39;;;;;;;1999.90;999.90;;;9.60;76.50;;;;;;6425812;22;20676;-78
2024/04/17 11:37:06;;;;;;;1999.90;999.90;;;9.70;76.70;;;;;;6424971;22;20331;-77
2024/04/17 11:39:33;;;;;;;1999.90;999.90;;;9.80;76.80;;;;;;6425089;22;20228;-78
2024/04/17 11:42:00;;;;;;;1999.90;999.90;;;9.90;76.80;;;;;;6425929;22;20292;-78
2024/04/17 11:44:26;;;;;;;1999.90;999.90;;;10.00;76.90;;;;;;6425707;22;20524;-79
2024/04/17 11:46:55;;;;;;;1999.90;999.90;;;10.00;77.00;;;;;;6424640;22;20225;-80
2024/04/17 11:49:22;;;;;;;1999.90;999.90;;;10.10;77.20;;;;;;6425556;22;20249;-78
2024/04/17 11:51:48;;;;;;;1999.90;999.90;;;10.20;77.20;;;;;;6422924;22;20216;-78
2024/04/17 11:54:13;;;;;;;1999.90;999.90;;;10.30;77.10;;;;;;6381959;22;20237;-79
2024/04/17 11:56:39;;;;;;;1999.90;999.90;;;10.40;77.10;;;;;;6380804;22;20241;-79
2024/04/17 11:59:05;;;;;;;1999.90;999.90;;;10.50;76.90;;;;;;6425420;22;20237;-79